createdAt,value
2018-07-24T00:00:28.960Z,97109.00
2018-07-24T00:03:10.525Z,97104.00
2018-07-24T00:05:52.123Z,97105.00
2018-07-24T00:08:33.716Z,97107.00
2018-07-24T00:11:16.432Z,97107.00
2018-07-24T00:13:57.959Z,97101.00
2018-07-24T00:16:39.527Z,97102.00
2018-07-24T00:19:21.490Z,97100.00
2018-07-24T00:22:03.227Z,97100.00
2018-07-24T00:24:44.570Z,97096.00
2018-07-24T00:27:27.171Z,97099.00
2018-07-24T00:30:08.732Z,97099.00
2018-07-24T00:32:51.014Z,97093.00
2018-07-24T00:35:37.236Z,97100.00
2018-07-24T00:38:19.759Z,97098.00
2018-07-24T00:41:02.133Z,97084.00
2018-07-24T00:43:43.707Z,97085.00
2018-07-24T00:46:25.122Z,97087.00
2018-07-24T00:49:06.532Z,97090.00
2018-07-24T00:51:48.471Z,97087.00
2018-07-24T00:54:30.269Z,97084.00
2018-07-24T00:57:11.577Z,97091.00
2018-07-24T00:59:53.787Z,97093.00
2018-07-24T01:02:35.314Z,97091.00
2018-07-24T01:05:17.555Z,97085.00
2018-07-24T01:07:59.082Z,97085.00
2018-07-24T01:10:40.703Z,97089.00
2018-07-24T01:13:24.087Z,97081.00
2018-07-24T01:16:05.730Z,97086.00
2018-07-24T01:18:47.263Z,97083.00
2018-07-24T01:21:28.897Z,97077.00
2018-07-24T01:24:10.491Z,97079.00
2018-07-24T01:26:53.162Z,97084.00
2018-07-24T01:29:36.486Z,97087.00
2018-07-24T01:32:18.120Z,97084.00
2018-07-24T01:34:59.524Z,97089.00
2018-07-24T01:37:41.308Z,97077.00
2018-07-24T01:40:24.219Z,97080.00
2018-07-24T01:43:05.754Z,97071.00
2018-07-24T01:45:47.016Z,97079.00
2018-07-24T01:48:28.470Z,97083.00
2018-07-24T01:51:10.080Z,97086.00
2018-07-24T01:53:52.731Z,97066.00
2018-07-24T01:56:34.304Z,97080.00
2018-07-24T02:02:31.900Z,97076.00
2018-07-24T02:05:13.663Z,97069.00
2018-07-24T02:07:55.665Z,97069.00
2018-07-24T02:10:37.187Z,97056.00
2018-07-24T02:13:20.116Z,97067.00
2018-07-24T02:16:01.424Z,97073.00
2018-07-24T02:18:43.056Z,97071.00
2018-07-24T02:21:25.076Z,97081.00
2018-07-24T02:24:06.710Z,97077.00
2018-07-24T02:26:48.240Z,97078.00
2018-07-24T02:29:29.675Z,97077.00
2018-07-24T02:32:12.053Z,97075.00
2018-07-24T02:34:57.564Z,97080.00
2018-07-24T02:37:39.024Z,97078.00
2018-07-24T02:40:23.290Z,97077.00
2018-07-24T02:43:05.596Z,97081.00
2018-07-24T02:45:47.404Z,97082.00
2018-07-24T02:48:29.363Z,97085.00
2018-07-24T02:51:11.006Z,97081.00
2018-07-24T02:53:53.099Z,97079.00
2018-07-24T02:56:34.548Z,97086.00
2018-07-24T02:59:16.081Z,97083.00
2018-07-24T03:01:58.460Z,97089.00
2018-07-24T03:04:43.755Z,97096.00
2018-07-24T03:07:25.976Z,97100.00
2018-07-24T03:10:07.740Z,97103.00
2018-07-24T03:12:50.207Z,97108.00
2018-07-24T03:15:37.211Z,97106.00
2018-07-24T03:18:19.020Z,97098.00
2018-07-24T03:21:00.444Z,97112.00
2018-07-24T03:23:42.299Z,97113.00
2018-07-24T03:26:27.442Z,97112.00
2018-07-24T03:29:08.904Z,97120.00
2018-07-24T03:31:51.865Z,97124.00
2018-07-24T03:34:33.849Z,97124.00
2018-07-24T03:37:16.148Z,97119.00
2018-07-24T03:39:59.917Z,97112.00
2018-07-24T03:42:41.604Z,97121.00
2018-07-24T03:45:24.009Z,97105.00
2018-07-24T03:48:05.295Z,97113.00
2018-07-24T03:50:47.097Z,97125.00
2018-07-24T03:53:29.058Z,97117.00
2018-07-24T03:56:10.682Z,97119.00
2018-07-24T03:58:53.964Z,97122.00
2018-07-24T04:01:51.917Z,97121.00
2018-07-24T04:04:33.966Z,97122.00
2018-07-24T04:07:16.092Z,97131.00
2018-07-24T04:09:57.549Z,97123.00
2018-07-24T04:12:39.327Z,97123.00
2018-07-24T04:15:21.769Z,97130.00
2018-07-24T04:18:03.211Z,97125.00
2018-07-24T04:20:45.033Z,97127.00
2018-07-24T04:23:26.550Z,97124.00
2018-07-24T04:26:08.028Z,97139.00
2018-07-24T04:28:50.612Z,97135.00
2018-07-24T04:31:33.548Z,97135.00
2018-07-24T04:34:15.247Z,97140.00
2018-07-24T04:36:57.457Z,97132.00
2018-07-24T04:39:38.936Z,97147.00
2018-07-24T04:42:21.208Z,97139.00
2018-07-24T04:45:03.011Z,97131.00
2018-07-24T04:47:44.862Z,97141.00
2018-07-24T04:50:26.636Z,97138.00
2018-07-24T04:53:08.461Z,97135.00
2018-07-24T04:55:50.131Z,97146.00
2018-07-24T04:58:31.575Z,97140.00
2018-07-24T05:01:13.219Z,97136.00
2018-07-24T05:03:55.244Z,97143.00
2018-07-24T05:06:36.728Z,97149.00
2018-07-24T05:09:18.239Z,97145.00
2018-07-24T05:12:00.964Z,97143.00
2018-07-24T05:14:42.423Z,97138.00
2018-07-24T05:17:24.590Z,97151.00
2018-07-24T05:20:06.059Z,97146.00
2018-07-24T05:22:47.411Z,97148.00
2018-07-24T05:25:30.619Z,97153.00
2018-07-24T05:28:15.735Z,97149.00
2018-07-24T05:30:59.447Z,97153.00
2018-07-24T05:33:41.799Z,97160.00
2018-07-24T05:36:23.872Z,97145.00
2018-07-24T05:39:09.669Z,97152.00
2018-07-24T05:41:51.790Z,97156.00
2018-07-24T05:44:33.283Z,97157.00
2018-07-24T05:47:14.865Z,97159.00
2018-07-24T05:49:56.407Z,97152.00
2018-07-24T05:52:37.973Z,97151.00
2018-07-24T05:55:20.235Z,97157.00
2018-07-24T05:58:01.788Z,97151.00
2018-07-24T06:00:43.377Z,97155.00
2018-07-24T06:03:25.814Z,97162.00
2018-07-24T06:06:07.257Z,97160.00
2018-07-24T06:08:48.560Z,97155.00
2018-07-24T06:11:33.608Z,97157.00
2018-07-24T06:14:15.216Z,97154.00
2018-07-24T06:16:56.799Z,97159.00
2018-07-24T06:19:38.232Z,97165.00
2018-07-24T06:22:20.405Z,97155.00
2018-07-24T06:25:02.748Z,97154.00
2018-07-24T06:27:44.572Z,97158.00
2018-07-24T06:30:26.025Z,97161.00
2018-07-24T06:33:07.664Z,97153.00
2018-07-24T06:35:50.248Z,97154.00
2018-07-24T06:38:33.100Z,97158.00
2018-07-24T06:41:14.579Z,97167.00
2018-07-24T06:43:56.800Z,97164.00
2018-07-24T06:46:38.259Z,97163.00
2018-07-24T06:49:20.253Z,97169.00
2018-07-24T06:52:01.866Z,97165.00
2018-07-24T06:54:43.564Z,97166.00
2018-07-24T06:57:25.781Z,97160.00
2018-07-24T07:00:07.307Z,97164.00
2018-07-24T07:02:48.667Z,97172.00
2018-07-24T07:05:30.216Z,97156.00
2018-07-24T07:08:11.690Z,97146.00
2018-07-24T07:10:54.476Z,97148.00
2018-07-24T07:13:36.536Z,97152.00
2018-07-24T07:16:17.989Z,97152.00
2018-07-24T07:19:01.679Z,97135.00
2018-07-24T07:21:43.155Z,97150.00
2018-07-24T07:24:25.236Z,97145.00
2018-07-24T07:27:06.669Z,97143.00
2018-07-24T07:29:48.250Z,97136.00
2018-07-24T07:32:29.783Z,97139.00
2018-07-24T07:35:11.387Z,97149.00
2018-07-24T07:37:54.141Z,97155.00
2018-07-24T07:40:36.384Z,97153.00
2018-07-24T07:43:18.847Z,97152.00
2018-07-24T07:46:00.266Z,97158.00
2018-07-24T07:48:41.842Z,97160.00
2018-07-24T07:51:24.239Z,97162.00
2018-07-24T07:54:05.832Z,97164.00
2018-07-24T07:56:47.412Z,97159.00
2018-07-24T07:59:29.900Z,97175.00
2018-07-24T08:02:11.562Z,97174.00
2018-07-24T08:04:54.056Z,97173.00
2018-07-24T08:07:37.900Z,97176.00
2018-07-24T08:10:20.300Z,97180.00
2018-07-24T08:13:02.760Z,97175.00
2018-07-24T08:15:44.433Z,97170.00
2018-07-24T08:18:26.064Z,97175.00
2018-07-24T08:21:07.560Z,97171.00
2018-07-24T08:23:51.452Z,97166.00
2018-07-24T08:26:32.896Z,97172.00
2018-07-24T08:29:14.643Z,97170.00
2018-07-24T08:31:56.316Z,97167.00
2018-07-24T08:34:37.864Z,97169.00
2018-07-24T08:37:20.292Z,97172.00
2018-07-24T08:40:02.769Z,97171.00
2018-07-24T08:42:45.207Z,97160.00
2018-07-24T08:45:26.408Z,97163.00
2018-07-24T08:48:12.772Z,97164.00
2018-07-24T08:50:55.639Z,97171.00
2018-07-24T08:53:37.488Z,97165.00
2018-07-24T08:56:18.853Z,97165.00
2018-07-24T08:59:00.504Z,97169.00
2018-07-24T09:01:42.141Z,97167.00
2018-07-24T09:04:24.525Z,97150.00
2018-07-24T09:07:05.992Z,97167.00
2018-07-24T09:09:47.616Z,97166.00
2018-07-24T09:12:30.307Z,97174.00
2018-07-24T09:15:12.001Z,97162.00
2018-07-24T09:18:04.520Z,97170.00
2018-07-24T09:20:46.067Z,97164.00
2018-07-24T09:23:27.639Z,97169.00
2018-07-24T09:26:09.069Z,97156.00
2018-07-24T09:28:53.089Z,97159.00
2018-07-24T09:31:34.684Z,97167.00
2018-07-24T09:34:16.768Z,97150.00
2018-07-24T09:36:58.934Z,97159.00
2018-07-24T09:39:40.899Z,97151.00
2018-07-24T09:42:26.096Z,97154.00
2018-07-24T09:45:08.358Z,97153.00
2018-07-24T09:47:55.309Z,97145.00
2018-07-24T09:50:36.886Z,97137.00
2018-07-24T09:53:18.256Z,97142.00
2018-07-24T09:55:59.833Z,97138.00
2018-07-24T09:58:41.447Z,97143.00
2018-07-24T10:01:30.676Z,97148.00
2018-07-24T10:04:13.541Z,97140.00
2018-07-24T10:06:57.778Z,97141.00
2018-07-24T10:09:39.396Z,97144.00
2018-07-24T10:12:23.081Z,97147.00
2018-07-24T10:15:04.784Z,97137.00
2018-07-24T10:17:46.231Z,97128.00
2018-07-24T10:20:28.329Z,97132.00
2018-07-24T10:23:09.732Z,97136.00
2018-07-24T10:25:54.623Z,97140.00
2018-07-24T10:28:36.359Z,97139.00
2018-07-24T10:31:17.941Z,97138.00
2018-07-24T10:34:00.005Z,97134.00
2018-07-24T10:36:41.640Z,97142.00
2018-07-24T10:39:25.160Z,97143.00
2018-07-24T10:42:06.836Z,97134.00
2018-07-24T10:44:48.464Z,97130.00
2018-07-24T10:47:29.880Z,97122.00
2018-07-24T10:50:11.240Z,97133.00
2018-07-24T10:52:55.064Z,97124.00
2018-07-24T10:55:36.728Z,97118.00
2018-07-24T10:58:18.227Z,97121.00
2018-07-24T11:00:59.998Z,97120.00
2018-07-24T11:03:41.412Z,97114.00
2018-07-24T11:06:26.163Z,97107.00
2018-07-24T11:09:09.375Z,97100.00
2018-07-24T11:11:52.860Z,97094.00
2018-07-24T11:14:34.528Z,97097.00
2018-07-24T11:17:16.021Z,97085.00
2018-07-24T11:19:57.732Z,97087.00
2018-07-24T11:22:39.689Z,97084.00
2018-07-24T11:25:22.884Z,97075.00
2018-07-24T11:28:04.272Z,97086.00
2018-07-24T11:30:46.073Z,97084.00
2018-07-24T11:33:28.165Z,97079.00
2018-07-24T11:36:09.626Z,97089.00
2018-07-24T11:38:53.884Z,97084.00
2018-07-24T11:41:35.766Z,97082.00
2018-07-24T11:44:17.388Z,97074.00
2018-07-24T11:47:00.166Z,97072.00
2018-07-24T11:49:41.800Z,97075.00
2018-07-24T11:52:24.507Z,97070.00
2018-07-24T11:55:06.373Z,97073.00
2018-07-24T11:57:48.285Z,97073.00
2018-07-24T12:00:30.520Z,97067.00
2018-07-24T12:03:12.115Z,97061.00
2018-07-24T12:05:54.792Z,97060.00
2018-07-24T12:08:36.939Z,97063.00
2018-07-24T12:11:18.619Z,97053.00
2018-07-24T12:14:01.453Z,97047.00
2018-07-24T12:16:46.930Z,97044.00
2018-07-24T12:19:28.552Z,97040.00
2018-07-24T12:22:10.608Z,97036.00
2018-07-24T12:24:56.977Z,97041.00
2018-07-24T12:27:38.819Z,97037.00
2018-07-24T12:30:21.095Z,97038.00
2018-07-24T12:33:02.561Z,97039.00
2018-07-24T12:35:44.108Z,97040.00
2018-07-24T12:38:25.610Z,97036.00
2018-07-24T12:41:08.634Z,97032.00
2018-07-24T12:43:51.400Z,97024.00
2018-07-24T12:46:33.943Z,97032.00
2018-07-24T12:49:16.787Z,97030.00
2018-07-24T12:51:59.350Z,97028.00
2018-07-24T12:54:40.991Z,97030.00
2018-07-24T12:57:22.875Z,97020.00
2018-07-24T13:00:11.526Z,97036.00
2018-07-24T13:02:54.450Z,97025.00
2018-07-24T13:05:37.744Z,97027.00
2018-07-24T13:08:20.206Z,97029.00
2018-07-24T13:11:01.679Z,97024.00
2018-07-24T13:13:43.554Z,97017.00
2018-07-24T13:16:25.241Z,97018.00
2018-07-24T13:19:11.096Z,97020.00
2018-07-24T13:21:55.064Z,97020.00
2018-07-24T13:24:36.468Z,97016.00
2018-07-24T13:27:18.180Z,97003.00
2018-07-24T13:29:59.624Z,97012.00
2018-07-24T13:32:43.235Z,97014.00
2018-07-24T13:35:26.646Z,97008.00
2018-07-24T13:38:09.028Z,97008.00
2018-07-24T13:40:51.940Z,97007.00
2018-07-24T13:43:33.372Z,97016.00
2018-07-24T13:46:15.798Z,97014.00
2018-07-24T13:48:57.621Z,97011.00
2018-07-24T13:51:43.012Z,97001.00
2018-07-24T13:54:28.157Z,96990.00
2018-07-24T13:57:10.403Z,96991.00
2018-07-24T13:59:53.812Z,96998.00
2018-07-24T14:02:35.650Z,96986.00
2018-07-24T14:05:17.320Z,96982.00
2018-07-24T14:08:01.696Z,96987.00
2018-07-24T14:10:43.744Z,96991.00
2018-07-24T14:13:27.836Z,96998.00
2018-07-24T14:16:11.781Z,96982.00
2018-07-24T14:18:54.365Z,96985.00
2018-07-24T14:21:36.102Z,96983.00
2018-07-24T14:24:24.939Z,96999.00
2018-07-24T14:27:08.860Z,96993.00
2018-07-24T14:29:50.400Z,97001.00
2018-07-24T14:32:32.544Z,97000.00
2018-07-24T14:35:14.021Z,97005.00
2018-07-24T14:37:57.880Z,97009.00
2018-07-24T14:40:40.108Z,96997.00
2018-07-24T14:43:23.585Z,97007.00
2018-07-24T14:46:06.813Z,97000.00
2018-07-24T14:48:48.297Z,96996.00
2018-07-24T14:51:29.737Z,96989.00
2018-07-24T14:54:14.794Z,96989.00
2018-07-24T14:57:02.856Z,96998.00
2018-07-24T14:59:44.319Z,96996.00
2018-07-24T15:02:27.881Z,96990.00
2018-07-24T15:05:09.725Z,96987.00
2018-07-24T15:07:51.262Z,96991.00
2018-07-24T15:10:33.696Z,96993.00
2018-07-24T15:13:15.229Z,96986.00
2018-07-24T15:15:57.227Z,96982.00
2018-07-24T15:18:38.689Z,96986.00
2018-07-24T15:21:20.233Z,96979.00
2018-07-24T15:24:02.505Z,96981.00
2018-07-24T15:26:44.076Z,96982.00
2018-07-24T15:29:29.158Z,96979.00
2018-07-24T15:32:19.279Z,96976.00
2018-07-24T15:35:01.063Z,96969.00
2018-07-24T15:37:42.328Z,96981.00
2018-07-24T15:40:24.424Z,96971.00
2018-07-24T15:43:07.079Z,96966.00
2018-07-24T15:45:48.616Z,96966.00
2018-07-24T15:48:31.847Z,96958.00
2018-07-24T15:51:13.320Z,96957.00
2018-07-24T15:53:56.596Z,96967.00
2018-07-24T15:56:38.269Z,96957.00
2018-07-24T15:59:20.057Z,96954.00
2018-07-24T16:02:03.176Z,96955.00
2018-07-24T16:04:44.685Z,96953.00
2018-07-24T16:07:26.564Z,96951.00
2018-07-24T16:10:08.184Z,96946.00
2018-07-24T16:12:50.396Z,96951.00
2018-07-24T16:15:32.232Z,96943.00
2018-07-24T16:18:13.682Z,96944.00
2018-07-24T16:20:55.152Z,96944.00
2018-07-24T16:23:36.915Z,96954.00
2018-07-24T16:26:18.884Z,96948.00
2018-07-24T16:29:02.962Z,96957.00
2018-07-24T16:31:49.733Z,96944.00
2018-07-24T16:34:32.935Z,96948.00
2018-07-24T16:37:14.416Z,96949.00
2018-07-24T16:39:56.708Z,96960.00
2018-07-24T16:42:38.196Z,96953.00
2018-07-24T16:45:19.687Z,96947.00
2018-07-24T16:48:01.850Z,96952.00
2018-07-24T16:50:43.587Z,96954.00
2018-07-24T16:53:27.720Z,96957.00
2018-07-24T16:56:09.645Z,96950.00
2018-07-24T16:58:52.306Z,96956.00
2018-07-24T17:01:35.768Z,96954.00
2018-07-24T17:04:18.188Z,96956.00
2018-07-24T17:07:00.727Z,96962.00
2018-07-24T17:09:42.713Z,96965.00
2018-07-24T17:12:24.788Z,96959.00
2018-07-24T17:15:07.685Z,96958.00
2018-07-24T17:17:50.144Z,96955.00
2018-07-24T17:20:32.559Z,96964.00
2018-07-24T17:23:14.710Z,96964.00
2018-07-24T17:25:56.294Z,96969.00
2018-07-24T17:28:39.783Z,96962.00
2018-07-24T17:31:21.176Z,96952.00
2018-07-24T17:34:04.781Z,96965.00
2018-07-24T17:36:46.428Z,96957.00
2018-07-24T17:39:29.442Z,96967.00
2018-07-24T17:42:11.553Z,96968.00
2018-07-24T17:44:52.893Z,96971.00
2018-07-24T17:47:34.912Z,96972.00
2018-07-24T17:50:16.947Z,96973.00
2018-07-24T17:53:03.148Z,96978.00
2018-07-24T17:55:46.570Z,96972.00
2018-07-24T17:58:32.080Z,96979.00
2018-07-24T18:01:18.808Z,96975.00
2018-07-24T18:04:01.798Z,96963.00
2018-07-24T18:06:44.147Z,96980.00
2018-07-24T18:09:31.881Z,96980.00
2018-07-24T18:12:15.257Z,96983.00
2018-07-24T18:14:57.584Z,96984.00
2018-07-24T18:17:39.759Z,96983.00
2018-07-24T18:20:21.171Z,96990.00
2018-07-24T18:23:03.738Z,96986.00
2018-07-24T18:25:46.260Z,96993.00
2018-07-24T18:28:28.104Z,96992.00
2018-07-24T18:31:10.455Z,97002.00
2018-07-24T18:33:52.485Z,97004.00
2018-07-24T18:36:35.938Z,97005.00
2018-07-24T18:39:18.480Z,97013.00
2018-07-24T18:42:00.998Z,97005.00
2018-07-24T18:44:43.577Z,97014.00
2018-07-24T18:47:26.050Z,97017.00
2018-07-24T18:50:07.671Z,97019.00
2018-07-24T18:52:49.336Z,97024.00
2018-07-24T18:55:33.482Z,97029.00
2018-07-24T18:58:17.340Z,97027.00
2018-07-24T19:00:58.942Z,97030.00
2018-07-24T19:03:41.320Z,97026.00
2018-07-24T19:06:24.338Z,97024.00
2018-07-24T19:09:09.422Z,97032.00
2018-07-24T19:11:50.895Z,97032.00
2018-07-24T19:14:34.076Z,97030.00
2018-07-24T19:17:15.629Z,97028.00
2018-07-24T19:19:59.365Z,97034.00
2018-07-24T19:22:41.852Z,97035.00
2018-07-24T19:25:23.568Z,97033.00
2018-07-24T19:28:05.998Z,97031.00
2018-07-24T19:30:47.647Z,97032.00
2018-07-24T19:33:31.799Z,97039.00
2018-07-24T19:36:13.827Z,97031.00
2018-07-24T19:38:55.406Z,97035.00
2018-07-24T19:41:39.171Z,97034.00
2018-07-24T19:44:20.662Z,97032.00
2018-07-24T19:47:03.045Z,97034.00
2018-07-24T19:49:45.391Z,97035.00
2018-07-24T19:52:26.948Z,97031.00
2018-07-24T19:55:11.064Z,97034.00
2018-07-24T19:57:59.957Z,97047.00
2018-07-24T20:00:45.143Z,97036.00
2018-07-24T20:03:26.483Z,97030.00
2018-07-24T20:06:21.968Z,97034.00
2018-07-24T20:09:11.140Z,97033.00
2018-07-24T20:11:54.082Z,97037.00
2018-07-24T20:14:35.611Z,97033.00
2018-07-24T20:17:17.092Z,97035.00
2018-07-24T20:19:58.956Z,97037.00
2018-07-24T20:22:42.561Z,97039.00
2018-07-24T20:25:24.534Z,97027.00
2018-07-24T20:28:06.184Z,97041.00
2018-07-24T20:30:47.885Z,97040.00
2018-07-24T20:33:30.021Z,97042.00
2018-07-24T20:36:16.536Z,97035.00
2018-07-24T20:38:58.228Z,97029.00
2018-07-24T20:41:40.091Z,97038.00
2018-07-24T20:44:23.424Z,97037.00
2018-07-24T20:47:05.695Z,97041.00
2018-07-24T20:49:47.956Z,97038.00
2018-07-24T20:52:30.148Z,97031.00
2018-07-24T20:55:12.751Z,97027.00
2018-07-24T20:57:54.665Z,97033.00
2018-07-24T21:00:37.460Z,97031.00
2018-07-24T21:03:19.099Z,97033.00
2018-07-24T21:06:00.676Z,97040.00
2018-07-24T21:08:42.455Z,97037.00
2018-07-24T21:11:26.092Z,97042.00
2018-07-24T21:14:08.916Z,97037.00
2018-07-24T21:16:52.788Z,97047.00
2018-07-24T21:19:34.279Z,97038.00
2018-07-24T21:22:17.624Z,97057.00
2018-07-24T21:24:59.117Z,97055.00
2018-07-24T21:27:40.761Z,97052.00
2018-07-24T21:30:27.304Z,97051.00
2018-07-24T21:33:09.024Z,97052.00
2018-07-24T21:35:50.900Z,97045.00
2018-07-24T21:38:32.468Z,97042.00
2018-07-24T21:41:13.996Z,97044.00
2018-07-24T21:43:56.187Z,97047.00
2018-07-24T21:46:37.849Z,97048.00
2018-07-24T21:49:20.496Z,97044.00
2018-07-24T21:52:02.672Z,97048.00
2018-07-24T21:54:44.326Z,97050.00
2018-07-24T21:57:28.041Z,97046.00
2018-07-24T22:00:12.018Z,97052.00
2018-07-24T22:02:53.664Z,97054.00
2018-07-24T22:05:35.377Z,97061.00
2018-07-24T22:08:18.152Z,97051.00
2018-07-24T22:11:00.435Z,97055.00
2018-07-24T22:13:44.141Z,97052.00
2018-07-24T22:16:25.926Z,97045.00
2018-07-24T22:19:07.396Z,97043.00
2018-07-24T22:21:51.095Z,97042.00
2018-07-24T22:24:32.721Z,97049.00
2018-07-24T22:27:14.216Z,97040.00
2018-07-24T22:29:56.988Z,97044.00
2018-07-24T22:32:38.370Z,97036.00
2018-07-24T22:35:22.025Z,97038.00
2018-07-24T22:38:03.777Z,97041.00
2018-07-24T22:40:45.303Z,97037.00
2018-07-24T22:43:27.892Z,97035.00
2018-07-24T22:46:09.633Z,97041.00
2018-07-24T22:48:52.805Z,97036.00
2018-07-24T22:51:34.391Z,97038.00
2018-07-24T22:54:16.475Z,97034.00
2018-07-24T22:56:58.496Z,97034.00
2018-07-24T22:59:40.211Z,97022.00
2018-07-24T23:02:22.899Z,97023.00
2018-07-24T23:05:05.073Z,97025.00
2018-07-24T23:07:46.719Z,97029.00
2018-07-24T23:10:33.570Z,97029.00
2018-07-24T23:13:15.085Z,97028.00
2018-07-24T23:15:57.247Z,97030.00
2018-07-24T23:18:38.687Z,97024.00
2018-07-24T23:21:21.417Z,97018.00
2018-07-24T23:24:02.868Z,97025.00
2018-07-24T23:26:44.447Z,97032.00
2018-07-24T23:29:26.383Z,97022.00
2018-07-24T23:32:07.977Z,97026.00
2018-07-24T23:34:49.406Z,97020.00
2018-07-24T23:37:31.221Z,97026.00
2018-07-24T23:40:12.536Z,97012.00
2018-07-24T23:42:55.060Z,97005.00
2018-07-24T23:45:36.572Z,97017.00
2018-07-24T23:48:18.048Z,97011.00
2018-07-24T23:50:59.995Z,97012.00
2018-07-24T23:53:41.680Z,97012.00
2018-07-24T23:56:25.661Z,97018.00
2018-07-24T23:59:07.424Z,97005.00
